sensor_id;sensor_type;location;lat;lon;timestamp;P1;durP1;ratioP1;P2;durP2;ratioP2
15096;SDS011;7649;52.084;7.478;2022-12-18T00:01:31;29.43;;;19.80;;
15096;SDS011;7649;52.084;7.478;2022-12-18T00:04:00;33.87;;;22.10;;
15096;SDS011;7649;52.084;7.478;2022-12-18T00:06:29;38.57;;;22.63;;
15096;SDS011;7649;52.084;7.478;2022-12-18T00:08:59;38.53;;;22.23;;
15096;SDS011;7649;52.084;7.478;2022-12-18T00:11:28;37.53;;;21.60;;
15096;SDS011;7649;52.084;7.478;2022-12-18T00:13:57;34.50;;;21.73;;
15096;SDS011;7649;52.084;7.478;2022-12-18T00:16:26;38.27;;;21.80;;
15096;SDS011;7649;52.084;7.478;2022-12-18T00:18:58;31.87;;;20.87;;
15096;SDS011;7649;52.084;7.478;2022-12-18T00:21:27;34.30;;;21.57;;
15096;SDS011;7649;52.084;7.478;2022-12-18T00:23:55;38.17;;;23.37;;
15096;SDS011;7649;52.084;7.478;2022-12-18T00:26:24;36.17;;;21.60;;
15096;SDS011;7649;52.084;7.478;2022-12-18T00:28:53;38.27;;;22.57;;
15096;SDS011;7649;52.084;7.478;2022-12-18T00:31:23;38.70;;;22.50;;
15096;SDS011;7649;52.084;7.478;2022-12-18T00:33:53;40.03;;;22.57;;
15096;SDS011;7649;52.084;7.478;2022-12-18T00:36:23;35.60;;;22.70;;
15096;SDS011;7649;52.084;7.478;2022-12-18T00:38:52;36.23;;;22.00;;
15096;SDS011;7649;52.084;7.478;2022-12-18T00:41:22;37.07;;;22.80;;
15096;SDS011;7649;52.084;7.478;2022-12-18T00:44:09;36.50;;;22.40;;
15096;SDS011;7649;52.084;7.478;2022-12-18T00:46:37;37.17;;;22.87;;
15096;SDS011;7649;52.084;7.478;2022-12-18T00:49:06;37.73;;;22.63;;
15096;SDS011;7649;52.084;7.478;2022-12-18T00:51:36;35.33;;;22.50;;
15096;SDS011;7649;52.084;7.478;2022-12-18T00:54:04;34.87;;;22.13;;
15096;SDS011;7649;52.084;7.478;2022-12-18T00:56:32;38.43;;;22.20;;
15096;SDS011;7649;52.084;7.478;2022-12-18T00:59:14;39.20;;;22.63;;
15096;SDS011;7649;52.084;7.478;2022-12-18T01:01:42;38.80;;;22.60;;
15096;SDS011;7649;52.084;7.478;2022-12-18T01:04:11;38.17;;;22.40;;
15096;SDS011;7649;52.084;7.478;2022-12-18T01:06:40;40.40;;;23.17;;
15096;SDS011;7649;52.084;7.478;2022-12-18T01:09:09;34.73;;;21.63;;
15096;SDS011;7649;52.084;7.478;2022-12-18T01:11:38;35.90;;;21.43;;
15096;SDS011;7649;52.084;7.478;2022-12-18T01:14:06;35.93;;;22.63;;
15096;SDS011;7649;52.084;7.478;2022-12-18T01:16:34;37.50;;;23.10;;
15096;SDS011;7649;52.084;7.478;2022-12-18T01:19:03;37.43;;;22.53;;
15096;SDS011;7649;52.084;7.478;2022-12-18T01:21:31;36.53;;;22.13;;
15096;SDS011;7649;52.084;7.478;2022-12-18T01:24:01;35.37;;;21.70;;
15096;SDS011;7649;52.084;7.478;2022-12-18T01:26:29;36.43;;;21.50;;
15096;SDS011;7649;52.084;7.478;2022-12-18T01:28:58;38.20;;;22.27;;
15096;SDS011;7649;52.084;7.478;2022-12-18T01:31:27;37.40;;;22.90;;
15096;SDS011;7649;52.084;7.478;2022-12-18T01:33:56;37.97;;;22.10;;
15096;SDS011;7649;52.084;7.478;2022-12-18T01:36:25;38.63;;;21.77;;
15096;SDS011;7649;52.084;7.478;2022-12-18T01:38:55;37.50;;;22.63;;
15096;SDS011;7649;52.084;7.478;2022-12-18T01:41:26;39.10;;;22.50;;
15096;SDS011;7649;52.084;7.478;2022-12-18T01:47:17;38.50;;;22.83;;
15096;SDS011;7649;52.084;7.478;2022-12-18T01:49:46;40.47;;;23.60;;
15096;SDS011;7649;52.084;7.478;2022-12-18T01:52:15;41.73;;;23.73;;
15096;SDS011;7649;52.084;7.478;2022-12-18T01:54:43;38.83;;;23.90;;
15096;SDS011;7649;52.084;7.478;2022-12-18T01:57:13;47.00;;;25.00;;
15096;SDS011;7649;52.084;7.478;2022-12-18T01:59:42;40.20;;;22.90;;
15096;SDS011;7649;52.084;7.478;2022-12-18T02:02:11;44.47;;;24.23;;
15096;SDS011;7649;52.084;7.478;2022-12-18T02:04:39;46.57;;;25.17;;
15096;SDS011;7649;52.084;7.478;2022-12-18T02:07:16;42.13;;;23.97;;
15096;SDS011;7649;52.084;7.478;2022-12-18T02:09:47;41.37;;;24.60;;
15096;SDS011;7649;52.084;7.478;2022-12-18T02:12:18;38.20;;;23.37;;
15096;SDS011;7649;52.084;7.478;2022-12-18T02:14:49;38.57;;;23.10;;
15096;SDS011;7649;52.084;7.478;2022-12-18T02:17:19;43.13;;;23.93;;
15096;SDS011;7649;52.084;7.478;2022-12-18T02:19:53;41.23;;;23.57;;
15096;SDS011;7649;52.084;7.478;2022-12-18T02:22:27;44.20;;;24.73;;
15096;SDS011;7649;52.084;7.478;2022-12-18T02:25:00;43.53;;;24.87;;
15096;SDS011;7649;52.084;7.478;2022-12-18T02:27:32;47.27;;;24.40;;
15096;SDS011;7649;52.084;7.478;2022-12-18T02:30:02;43.60;;;24.30;;
15096;SDS011;7649;52.084;7.478;2022-12-18T02:32:32;44.97;;;25.03;;
15096;SDS011;7649;52.084;7.478;2022-12-18T02:35:03;41.07;;;23.57;;
15096;SDS011;7649;52.084;7.478;2022-12-18T02:37:32;43.97;;;23.43;;
15096;SDS011;7649;52.084;7.478;2022-12-18T02:40:02;45.10;;;25.10;;
15096;SDS011;7649;52.084;7.478;2022-12-18T02:42:33;40.77;;;23.60;;
15096;SDS011;7649;52.084;7.478;2022-12-18T02:45:01;38.63;;;23.33;;
15096;SDS011;7649;52.084;7.478;2022-12-18T02:47:30;46.03;;;25.83;;
15096;SDS011;7649;52.084;7.478;2022-12-18T02:50:02;44.97;;;24.73;;
15096;SDS011;7649;52.084;7.478;2022-12-18T02:52:31;44.17;;;23.80;;
15096;SDS011;7649;52.084;7.478;2022-12-18T02:55:07;40.33;;;23.27;;
15096;SDS011;7649;52.084;7.478;2022-12-18T02:57:42;38.23;;;23.37;;
15096;SDS011;7649;52.084;7.478;2022-12-18T03:00:13;42.67;;;24.13;;
15096;SDS011;7649;52.084;7.478;2022-12-18T03:02:44;36.57;;;22.97;;
15096;SDS011;7649;52.084;7.478;2022-12-18T03:05:15;45.53;;;24.70;;
15096;SDS011;7649;52.084;7.478;2022-12-18T03:07:46;38.40;;;22.83;;
15096;SDS011;7649;52.084;7.478;2022-12-18T03:10:16;41.10;;;23.33;;
15096;SDS011;7649;52.084;7.478;2022-12-18T03:12:49;44.50;;;24.53;;
15096;SDS011;7649;52.084;7.478;2022-12-18T03:15:20;41.00;;;23.83;;
15096;SDS011;7649;52.084;7.478;2022-12-18T03:17:51;38.87;;;23.40;;
15096;SDS011;7649;52.084;7.478;2022-12-18T03:20:21;39.93;;;22.87;;
15096;SDS011;7649;52.084;7.478;2022-12-18T03:22:51;40.67;;;23.40;;
15096;SDS011;7649;52.084;7.478;2022-12-18T03:25:21;42.53;;;23.00;;
15096;SDS011;7649;52.084;7.478;2022-12-18T03:27:51;36.47;;;22.53;;
15096;SDS011;7649;52.084;7.478;2022-12-18T03:30:22;44.93;;;24.30;;
15096;SDS011;7649;52.084;7.478;2022-12-18T03:32:52;40.80;;;22.40;;
15096;SDS011;7649;52.084;7.478;2022-12-18T03:35:26;37.60;;;22.23;;
15096;SDS011;7649;52.084;7.478;2022-12-18T03:37:56;37.10;;;22.03;;
15096;SDS011;7649;52.084;7.478;2022-12-18T03:40:26;40.33;;;23.40;;
15096;SDS011;7649;52.084;7.478;2022-12-18T03:43:00;45.23;;;24.70;;
15096;SDS011;7649;52.084;7.478;2022-12-18T03:45:31;41.57;;;23.57;;
15096;SDS011;7649;52.084;7.478;2022-12-18T03:48:03;38.67;;;22.83;;
15096;SDS011;7649;52.084;7.478;2022-12-18T03:50:36;42.47;;;22.27;;
15096;SDS011;7649;52.084;7.478;2022-12-18T03:53:08;38.83;;;22.73;;
15096;SDS011;7649;52.084;7.478;2022-12-18T03:55:41;38.30;;;22.60;;
15096;SDS011;7649;52.084;7.478;2022-12-18T03:58:13;37.73;;;22.77;;
15096;SDS011;7649;52.084;7.478;2022-12-18T04:00:44;43.10;;;22.97;;
15096;SDS011;7649;52.084;7.478;2022-12-18T04:03:13;41.37;;;22.53;;
15096;SDS011;7649;52.084;7.478;2022-12-18T04:05:41;39.87;;;23.23;;
15096;SDS011;7649;52.084;7.478;2022-12-18T04:08:11;37.53;;;22.50;;
15096;SDS011;7649;52.084;7.478;2022-12-18T04:10:40;41.60;;;23.07;;
15096;SDS011;7649;52.084;7.478;2022-12-18T04:13:08;34.23;;;21.87;;
15096;SDS011;7649;52.084;7.478;2022-12-18T04:15:38;40.10;;;22.93;;
15096;SDS011;7649;52.084;7.478;2022-12-18T04:18:07;37.87;;;22.30;;
15096;SDS011;7649;52.084;7.478;2022-12-18T04:20:35;34.90;;;21.70;;
15096;SDS011;7649;52.084;7.478;2022-12-18T04:23:04;35.90;;;22.03;;
15096;SDS011;7649;52.084;7.478;2022-12-18T04:25:32;41.00;;;21.30;;
15096;SDS011;7649;52.084;7.478;2022-12-18T04:28:00;35.00;;;20.93;;
15096;SDS011;7649;52.084;7.478;2022-12-18T04:30:28;33.33;;;21.20;;
15096;SDS011;7649;52.084;7.478;2022-12-18T04:32:58;37.33;;;21.87;;
15096;SDS011;7649;52.084;7.478;2022-12-18T04:35:26;35.47;;;20.80;;
15096;SDS011;7649;52.084;7.478;2022-12-18T04:37:54;34.70;;;21.67;;
15096;SDS011;7649;52.084;7.478;2022-12-18T04:40:23;36.57;;;21.40;;
15096;SDS011;7649;52.084;7.478;2022-12-18T04:42:51;32.00;;;20.80;;
15096;SDS011;7649;52.084;7.478;2022-12-18T04:45:19;36.30;;;20.97;;
15096;SDS011;7649;52.084;7.478;2022-12-18T04:47:48;36.80;;;21.77;;
15096;SDS011;7649;52.084;7.478;2022-12-18T04:50:17;36.63;;;21.70;;
15096;SDS011;7649;52.084;7.478;2022-12-18T04:52:46;36.20;;;21.43;;
15096;SDS011;7649;52.084;7.478;2022-12-18T04:55:14;33.80;;;21.10;;
15096;SDS011;7649;52.084;7.478;2022-12-18T04:57:42;37.63;;;20.63;;
15096;SDS011;7649;52.084;7.478;2022-12-18T05:00:11;32.07;;;19.90;;
15096;SDS011;7649;52.084;7.478;2022-12-18T05:02:39;35.37;;;20.07;;
15096;SDS011;7649;52.084;7.478;2022-12-18T05:05:08;36.70;;;21.47;;
15096;SDS011;7649;52.084;7.478;2022-12-18T05:07:37;34.43;;;20.10;;
15096;SDS011;7649;52.084;7.478;2022-12-18T05:10:07;34.13;;;20.67;;
15096;SDS011;7649;52.084;7.478;2022-12-18T05:12:39;34.33;;;20.37;;
15096;SDS011;7649;52.084;7.478;2022-12-18T05:15:21;35.20;;;20.00;;
15096;SDS011;7649;52.084;7.478;2022-12-18T05:17:50;32.87;;;19.30;;
15096;SDS011;7649;52.084;7.478;2022-12-18T05:20:18;29.27;;;19.17;;
15096;SDS011;7649;52.084;7.478;2022-12-18T05:22:48;33.77;;;19.33;;
15096;SDS011;7649;52.084;7.478;2022-12-18T05:25:16;31.53;;;19.33;;
15096;SDS011;7649;52.084;7.478;2022-12-18T05:27:46;33.47;;;18.67;;
15096;SDS011;7649;52.084;7.478;2022-12-18T05:30:14;32.57;;;19.47;;
15096;SDS011;7649;52.084;7.478;2022-12-18T05:32:43;27.57;;;17.87;;
15096;SDS011;7649;52.084;7.478;2022-12-18T05:35:11;27.73;;;18.57;;
15096;SDS011;7649;52.084;7.478;2022-12-18T05:37:39;31.87;;;18.30;;
15096;SDS011;7649;52.084;7.478;2022-12-18T05:40:10;28.77;;;18.80;;
15096;SDS011;7649;52.084;7.478;2022-12-18T05:42:39;28.80;;;17.97;;
15096;SDS011;7649;52.084;7.478;2022-12-18T05:45:07;30.97;;;18.77;;
15096;SDS011;7649;52.084;7.478;2022-12-18T05:47:36;31.33;;;19.40;;
15096;SDS011;7649;52.084;7.478;2022-12-18T05:50:05;30.80;;;18.70;;
15096;SDS011;7649;52.084;7.478;2022-12-18T05:52:33;33.60;;;19.77;;
15096;SDS011;7649;52.084;7.478;2022-12-18T05:55:01;30.40;;;18.50;;
15096;SDS011;7649;52.084;7.478;2022-12-18T05:57:31;30.33;;;18.37;;
15096;SDS011;7649;52.084;7.478;2022-12-18T06:00:00;29.00;;;18.97;;
15096;SDS011;7649;52.084;7.478;2022-12-18T06:02:28;28.00;;;18.90;;
15096;SDS011;7649;52.084;7.478;2022-12-18T06:04:56;31.40;;;18.53;;
15096;SDS011;7649;52.084;7.478;2022-12-18T06:07:24;28.63;;;19.00;;
15096;SDS011;7649;52.084;7.478;2022-12-18T06:09:53;30.37;;;17.63;;
15096;SDS011;7649;52.084;7.478;2022-12-18T06:12:21;35.97;;;20.93;;
15096;SDS011;7649;52.084;7.478;2022-12-18T06:14:51;31.57;;;19.70;;
15096;SDS011;7649;52.084;7.478;2022-12-18T06:17:19;30.03;;;18.43;;
15096;SDS011;7649;52.084;7.478;2022-12-18T06:19:47;27.40;;;17.83;;
15096;SDS011;7649;52.084;7.478;2022-12-18T06:22:15;26.93;;;16.73;;
15096;SDS011;7649;52.084;7.478;2022-12-18T06:24:44;25.77;;;15.90;;
15096;SDS011;7649;52.084;7.478;2022-12-18T06:27:12;26.17;;;15.93;;
15096;SDS011;7649;52.084;7.478;2022-12-18T06:29:41;25.40;;;15.87;;
15096;SDS011;7649;52.084;7.478;2022-12-18T06:32:10;25.67;;;15.53;;
15096;SDS011;7649;52.084;7.478;2022-12-18T06:34:39;24.53;;;16.33;;
15096;SDS011;7649;52.084;7.478;2022-12-18T06:37:07;27.20;;;16.87;;
15096;SDS011;7649;52.084;7.478;2022-12-18T06:39:35;23.57;;;16.53;;
15096;SDS011;7649;52.084;7.478;2022-12-18T06:42:03;25.77;;;16.40;;
15096;SDS011;7649;52.084;7.478;2022-12-18T06:44:32;25.53;;;15.97;;
15096;SDS011;7649;52.084;7.478;2022-12-18T06:47:00;23.13;;;15.50;;
15096;SDS011;7649;52.084;7.478;2022-12-18T06:49:30;30.10;;;16.33;;
15096;SDS011;7649;52.084;7.478;2022-12-18T06:51:58;24.20;;;15.37;;
15096;SDS011;7649;52.084;7.478;2022-12-18T06:54:26;23.20;;;15.70;;
15096;SDS011;7649;52.084;7.478;2022-12-18T06:56:54;27.27;;;16.43;;
15096;SDS011;7649;52.084;7.478;2022-12-18T06:59:23;24.37;;;16.67;;
15096;SDS011;7649;52.084;7.478;2022-12-18T07:01:52;25.70;;;16.13;;
15096;SDS011;7649;52.084;7.478;2022-12-18T07:04:20;31.57;;;18.30;;
15096;SDS011;7649;52.084;7.478;2022-12-18T07:06:50;27.47;;;17.93;;
15096;SDS011;7649;52.084;7.478;2022-12-18T07:09:19;22.60;;;15.77;;
15096;SDS011;7649;52.084;7.478;2022-12-18T07:11:47;26.20;;;16.37;;
15096;SDS011;7649;52.084;7.478;2022-12-18T07:14:15;24.67;;;16.27;;
15096;SDS011;7649;52.084;7.478;2022-12-18T07:16:44;27.20;;;17.13;;
15096;SDS011;7649;52.084;7.478;2022-12-18T07:19:12;34.93;;;21.13;;
15096;SDS011;7649;52.084;7.478;2022-12-18T07:21:40;30.37;;;19.03;;
15096;SDS011;7649;52.084;7.478;2022-12-18T07:24:10;28.97;;;18.43;;
15096;SDS011;7649;52.084;7.478;2022-12-18T07:26:38;26.13;;;17.27;;
15096;SDS011;7649;52.084;7.478;2022-12-18T07:29:07;31.17;;;17.80;;
15096;SDS011;7649;52.084;7.478;2022-12-18T07:31:35;28.20;;;18.97;;
15096;SDS011;7649;52.084;7.478;2022-12-18T07:34:03;27.13;;;18.47;;
15096;SDS011;7649;52.084;7.478;2022-12-18T07:36:31;22.47;;;16.27;;
15096;SDS011;7649;52.084;7.478;2022-12-18T07:39:00;22.97;;;15.40;;
15096;SDS011;7649;52.084;7.478;2022-12-18T07:41:30;25.10;;;16.60;;
15096;SDS011;7649;52.084;7.478;2022-12-18T07:43:59;26.53;;;17.27;;
15096;SDS011;7649;52.084;7.478;2022-12-18T07:46:27;25.33;;;15.53;;
15096;SDS011;7649;52.084;7.478;2022-12-18T07:48:55;23.70;;;14.97;;
15096;SDS011;7649;52.084;7.478;2022-12-18T07:51:24;21.23;;;13.87;;
15096;SDS011;7649;52.084;7.478;2022-12-18T07:53:52;21.63;;;14.27;;
15096;SDS011;7649;52.084;7.478;2022-12-18T07:56:21;22.07;;;14.87;;
15096;SDS011;7649;52.084;7.478;2022-12-18T07:58:55;23.07;;;14.77;;
15096;SDS011;7649;52.084;7.478;2022-12-18T08:01:24;22.70;;;15.47;;
15096;SDS011;7649;52.084;7.478;2022-12-18T08:03:53;24.70;;;15.57;;
15096;SDS011;7649;52.084;7.478;2022-12-18T08:06:21;25.10;;;15.07;;
15096;SDS011;7649;52.084;7.478;2022-12-18T08:08:50;20.23;;;13.17;;
15096;SDS011;7649;52.084;7.478;2022-12-18T08:11:18;20.50;;;13.30;;
15096;SDS011;7649;52.084;7.478;2022-12-18T08:13:47;22.27;;;14.30;;
15096;SDS011;7649;52.084;7.478;2022-12-18T08:16:17;20.33;;;13.00;;
15096;SDS011;7649;52.084;7.478;2022-12-18T08:18:46;18.50;;;13.67;;
15096;SDS011;7649;52.084;7.478;2022-12-18T08:21:15;18.37;;;13.23;;
15096;SDS011;7649;52.084;7.478;2022-12-18T08:23:46;17.80;;;12.37;;
15096;SDS011;7649;52.084;7.478;2022-12-18T08:26:16;17.13;;;12.13;;
15096;SDS011;7649;52.084;7.478;2022-12-18T08:28:46;18.87;;;12.43;;
15096;SDS011;7649;52.084;7.478;2022-12-18T08:31:17;25.97;;;15.70;;
15096;SDS011;7649;52.084;7.478;2022-12-18T08:33:47;38.83;;;22.70;;
15096;SDS011;7649;52.084;7.478;2022-12-18T08:36:16;29.20;;;17.87;;
15096;SDS011;7649;52.084;7.478;2022-12-18T08:38:45;22.53;;;14.67;;
15096;SDS011;7649;52.084;7.478;2022-12-18T08:41:14;17.47;;;12.50;;
15096;SDS011;7649;52.084;7.478;2022-12-18T08:43:42;16.50;;;12.00;;
15096;SDS011;7649;52.084;7.478;2022-12-18T08:46:32;16.73;;;12.47;;
15096;SDS011;7649;52.084;7.478;2022-12-18T08:49:02;17.60;;;11.20;;
15096;SDS011;7649;52.084;7.478;2022-12-18T08:51:30;16.10;;;10.73;;
15096;SDS011;7649;52.084;7.478;2022-12-18T08:53:59;17.47;;;11.70;;
15096;SDS011;7649;52.084;7.478;2022-12-18T08:56:29;19.73;;;14.23;;
15096;SDS011;7649;52.084;7.478;2022-12-18T08:58:57;18.27;;;12.37;;
15096;SDS011;7649;52.084;7.478;2022-12-18T09:01:26;14.63;;;10.33;;
15096;SDS011;7649;52.084;7.478;2022-12-18T09:03:56;14.50;;;10.10;;
15096;SDS011;7649;52.084;7.478;2022-12-18T09:06:24;16.47;;;10.43;;
15096;SDS011;7649;52.084;7.478;2022-12-18T09:08:52;13.60;;;9.43;;
15096;SDS011;7649;52.084;7.478;2022-12-18T09:11:21;14.40;;;10.13;;
15096;SDS011;7649;52.084;7.478;2022-12-18T09:13:50;12.80;;;10.13;;
15096;SDS011;7649;52.084;7.478;2022-12-18T09:16:18;14.47;;;9.40;;
15096;SDS011;7649;52.084;7.478;2022-12-18T09:18:50;13.87;;;9.83;;
15096;SDS011;7649;52.084;7.478;2022-12-18T09:21:21;13.70;;;9.43;;
15096;SDS011;7649;52.084;7.478;2022-12-18T09:23:49;13.23;;;9.40;;
15096;SDS011;7649;52.084;7.478;2022-12-18T09:26:17;12.17;;;9.13;;
15096;SDS011;7649;52.084;7.478;2022-12-18T09:28:46;12.27;;;9.97;;
15096;SDS011;7649;52.084;7.478;2022-12-18T09:31:14;12.50;;;8.07;;
15096;SDS011;7649;52.084;7.478;2022-12-18T09:33:43;10.83;;;8.53;;
15096;SDS011;7649;52.084;7.478;2022-12-18T09:36:12;18.27;;;11.00;;
15096;SDS011;7649;52.084;7.478;2022-12-18T09:38:43;14.73;;;9.20;;
15096;SDS011;7649;52.084;7.478;2022-12-18T09:41:17;21.87;;;11.83;;
15096;SDS011;7649;52.084;7.478;2022-12-18T09:43:48;19.60;;;11.57;;
15096;SDS011;7649;52.084;7.478;2022-12-18T09:46:19;17.07;;;9.47;;
15096;SDS011;7649;52.084;7.478;2022-12-18T09:48:52;17.50;;;9.80;;
15096;SDS011;7649;52.084;7.478;2022-12-18T09:51:22;16.57;;;9.73;;
15096;SDS011;7649;52.084;7.478;2022-12-18T09:53:53;12.23;;;7.63;;
15096;SDS011;7649;52.084;7.478;2022-12-18T09:56:23;11.47;;;7.53;;
15096;SDS011;7649;52.084;7.478;2022-12-18T09:58:55;10.37;;;7.60;;
15096;SDS011;7649;52.084;7.478;2022-12-18T10:01:25;11.90;;;8.03;;
15096;SDS011;7649;52.084;7.478;2022-12-18T10:04:07;10.50;;;7.63;;
15096;SDS011;7649;52.084;7.478;2022-12-18T10:06:38;10.70;;;8.13;;
15096;SDS011;7649;52.084;7.478;2022-12-18T10:09:13;11.07;;;8.00;;
15096;SDS011;7649;52.084;7.478;2022-12-18T10:11:48;10.70;;;7.63;;
15096;SDS011;7649;52.084;7.478;2022-12-18T10:14:18;9.70;;;7.50;;
15096;SDS011;7649;52.084;7.478;2022-12-18T10:16:51;9.67;;;7.43;;
15096;SDS011;7649;52.084;7.478;2022-12-18T10:19:33;10.27;;;7.67;;
15096;SDS011;7649;52.084;7.478;2022-12-18T10:22:03;10.27;;;8.23;;
15096;SDS011;7649;52.084;7.478;2022-12-18T10:24:38;10.97;;;7.27;;
15096;SDS011;7649;52.084;7.478;2022-12-18T10:27:11;9.70;;;7.43;;
15096;SDS011;7649;52.084;7.478;2022-12-18T10:29:41;12.10;;;7.97;;
15096;SDS011;7649;52.084;7.478;2022-12-18T10:32:12;15.07;;;10.30;;
15096;SDS011;7649;52.084;7.478;2022-12-18T10:34:44;19.83;;;10.93;;
15096;SDS011;7649;52.084;7.478;2022-12-18T10:37:14;22.80;;;13.33;;
15096;SDS011;7649;52.084;7.478;2022-12-18T10:39:45;17.03;;;11.70;;
15096;SDS011;7649;52.084;7.478;2022-12-18T10:42:16;29.37;;;15.80;;
15096;SDS011;7649;52.084;7.478;2022-12-18T10:44:44;21.93;;;14.40;;
15096;SDS011;7649;52.084;7.478;2022-12-18T10:47:14;20.50;;;12.90;;
15096;SDS011;7649;52.084;7.478;2022-12-18T10:49:46;22.47;;;16.57;;
15096;SDS011;7649;52.084;7.478;2022-12-18T10:52:15;18.13;;;12.07;;
15096;SDS011;7649;52.084;7.478;2022-12-18T10:54:48;12.27;;;8.57;;
15096;SDS011;7649;52.084;7.478;2022-12-18T10:57:20;19.20;;;12.70;;
15096;SDS011;7649;52.084;7.478;2022-12-18T10:59:57;12.83;;;9.37;;
15096;SDS011;7649;52.084;7.478;2022-12-18T11:02:26;11.87;;;8.97;;
15096;SDS011;7649;52.084;7.478;2022-12-18T11:04:55;12.30;;;8.40;;
15096;SDS011;7649;52.084;7.478;2022-12-18T11:07:23;12.27;;;8.23;;
15096;SDS011;7649;52.084;7.478;2022-12-18T11:10:04;11.73;;;8.63;;
15096;SDS011;7649;52.084;7.478;2022-12-18T11:12:33;12.43;;;8.20;;
15096;SDS011;7649;52.084;7.478;2022-12-18T11:15:01;10.87;;;8.03;;
15096;SDS011;7649;52.084;7.478;2022-12-18T11:17:30;14.13;;;10.40;;
15096;SDS011;7649;52.084;7.478;2022-12-18T11:19:59;14.77;;;9.60;;
15096;SDS011;7649;52.084;7.478;2022-12-18T11:22:29;15.80;;;9.97;;
15096;SDS011;7649;52.084;7.478;2022-12-18T11:25:02;13.97;;;9.80;;
15096;SDS011;7649;52.084;7.478;2022-12-18T11:27:52;13.10;;;9.17;;
15096;SDS011;7649;52.084;7.478;2022-12-18T11:30:22;13.07;;;8.17;;
15096;SDS011;7649;52.084;7.478;2022-12-18T11:32:50;12.87;;;8.57;;
15096;SDS011;7649;52.084;7.478;2022-12-18T11:35:21;9.97;;;8.20;;
15096;SDS011;7649;52.084;7.478;2022-12-18T11:37:53;9.53;;;7.60;;
15096;SDS011;7649;52.084;7.478;2022-12-18T11:40:27;11.77;;;7.80;;
15096;SDS011;7649;52.084;7.478;2022-12-18T11:43:07;15.13;;;9.63;;
15096;SDS011;7649;52.084;7.478;2022-12-18T11:45:40;10.73;;;7.60;;
15096;SDS011;7649;52.084;7.478;2022-12-18T11:48:12;9.03;;;7.07;;
15096;SDS011;7649;52.084;7.478;2022-12-18T11:50:45;12.53;;;7.73;;
15096;SDS011;7649;52.084;7.478;2022-12-18T11:53:14;11.87;;;8.77;;
15096;SDS011;7649;52.084;7.478;2022-12-18T11:55:47;11.43;;;8.60;;
15096;SDS011;7649;52.084;7.478;2022-12-18T11:58:18;11.00;;;7.77;;
15096;SDS011;7649;52.084;7.478;2022-12-18T12:00:59;14.63;;;8.23;;
15096;SDS011;7649;52.084;7.478;2022-12-18T12:03:39;13.27;;;8.90;;
15096;SDS011;7649;52.084;7.478;2022-12-18T12:06:12;12.23;;;8.17;;
15096;SDS011;7649;52.084;7.478;2022-12-18T12:08:53;13.57;;;8.97;;
15096;SDS011;7649;52.084;7.478;2022-12-18T12:11:27;12.37;;;9.93;;
15096;SDS011;7649;52.084;7.478;2022-12-18T12:14:02;15.20;;;9.87;;
15096;SDS011;7649;52.084;7.478;2022-12-18T12:16:33;12.47;;;9.07;;
15096;SDS011;7649;52.084;7.478;2022-12-18T12:19:07;11.80;;;9.00;;
15096;SDS011;7649;52.084;7.478;2022-12-18T12:21:42;13.07;;;8.57;;
15096;SDS011;7649;52.084;7.478;2022-12-18T12:24:26;10.67;;;8.80;;
15096;SDS011;7649;52.084;7.478;2022-12-18T12:26:59;12.10;;;8.47;;
15096;SDS011;7649;52.084;7.478;2022-12-18T12:29:32;12.60;;;9.30;;
15096;SDS011;7649;52.084;7.478;2022-12-18T12:32:07;10.50;;;8.30;;
15096;SDS011;7649;52.084;7.478;2022-12-18T12:34:41;10.47;;;8.80;;
15096;SDS011;7649;52.084;7.478;2022-12-18T12:37:18;12.10;;;8.37;;
15096;SDS011;7649;52.084;7.478;2022-12-18T12:39:48;11.17;;;8.77;;
15096;SDS011;7649;52.084;7.478;2022-12-18T12:42:21;13.57;;;8.67;;
15096;SDS011;7649;52.084;7.478;2022-12-18T12:45:09;18.40;;;11.30;;
15096;SDS011;7649;52.084;7.478;2022-12-18T12:47:43;14.20;;;9.87;;
15096;SDS011;7649;52.084;7.478;2022-12-18T12:50:14;19.03;;;11.70;;
15096;SDS011;7649;52.084;7.478;2022-12-18T12:52:44;13.90;;;10.10;;
15096;SDS011;7649;52.084;7.478;2022-12-18T12:55:14;13.00;;;9.17;;
15096;SDS011;7649;52.084;7.478;2022-12-18T12:57:50;13.30;;;8.97;;
15096;SDS011;7649;52.084;7.478;2022-12-18T13:00:21;13.23;;;9.57;;
15096;SDS011;7649;52.084;7.478;2022-12-18T13:02:53;12.93;;;9.43;;
15096;SDS011;7649;52.084;7.478;2022-12-18T13:05:23;13.17;;;9.37;;
15096;SDS011;7649;52.084;7.478;2022-12-18T13:07:55;16.93;;;11.30;;
15096;SDS011;7649;52.084;7.478;2022-12-18T13:10:26;10.90;;;8.87;;
15096;SDS011;7649;52.084;7.478;2022-12-18T13:13:00;15.83;;;10.13;;
15096;SDS011;7649;52.084;7.478;2022-12-18T13:15:33;14.57;;;9.67;;
15096;SDS011;7649;52.084;7.478;2022-12-18T13:18:15;12.87;;;9.37;;
15096;SDS011;7649;52.084;7.478;2022-12-18T13:20:45;12.83;;;8.63;;
15096;SDS011;7649;52.084;7.478;2022-12-18T13:23:33;11.83;;;8.33;;
15096;SDS011;7649;52.084;7.478;2022-12-18T13:26:28;12.17;;;8.53;;
15096;SDS011;7649;52.084;7.478;2022-12-18T13:28:59;10.00;;;7.77;;
15096;SDS011;7649;52.084;7.478;2022-12-18T13:34:17;11.53;;;8.60;;
15096;SDS011;7649;52.084;7.478;2022-12-18T13:36:56;12.47;;;8.60;;
15096;SDS011;7649;52.084;7.478;2022-12-18T13:39:32;11.97;;;9.07;;
15096;SDS011;7649;52.084;7.478;2022-12-18T13:45:10;11.00;;;8.30;;
15096;SDS011;7649;52.084;7.478;2022-12-18T13:47:57;12.90;;;9.40;;
15096;SDS011;7649;52.084;7.478;2022-12-18T13:50:25;11.33;;;7.90;;
15096;SDS011;7649;52.084;7.478;2022-12-18T13:53:01;12.07;;;8.83;;
15096;SDS011;7649;52.084;7.478;2022-12-18T13:55:31;11.63;;;8.53;;
15096;SDS011;7649;52.084;7.478;2022-12-18T13:58:03;14.17;;;8.83;;
15096;SDS011;7649;52.084;7.478;2022-12-18T14:00:34;14.13;;;9.07;;
15096;SDS011;7649;52.084;7.478;2022-12-18T14:03:15;12.67;;;9.27;;
15096;SDS011;7649;52.084;7.478;2022-12-18T14:05:52;9.87;;;7.93;;
15096;SDS011;7649;52.084;7.478;2022-12-18T14:08:20;11.83;;;8.63;;
15096;SDS011;7649;52.084;7.478;2022-12-18T14:10:49;11.30;;;8.73;;
15096;SDS011;7649;52.084;7.478;2022-12-18T14:13:21;11.73;;;8.67;;
15096;SDS011;7649;52.084;7.478;2022-12-18T14:15:52;12.53;;;9.17;;
15096;SDS011;7649;52.084;7.478;2022-12-18T14:18:23;10.13;;;7.87;;
15096;SDS011;7649;52.084;7.478;2022-12-18T14:20:52;11.17;;;8.23;;
15096;SDS011;7649;52.084;7.478;2022-12-18T14:23:28;10.43;;;7.50;;
15096;SDS011;7649;52.084;7.478;2022-12-18T14:25:57;11.13;;;7.87;;
15096;SDS011;7649;52.084;7.478;2022-12-18T14:28:31;10.13;;;7.63;;
15096;SDS011;7649;52.084;7.478;2022-12-18T14:31:00;10.37;;;7.37;;
15096;SDS011;7649;52.084;7.478;2022-12-18T14:33:29;9.73;;;6.87;;
15096;SDS011;7649;52.084;7.478;2022-12-18T14:35:58;10.20;;;7.27;;
15096;SDS011;7649;52.084;7.478;2022-12-18T14:38:28;10.87;;;8.33;;
15096;SDS011;7649;52.084;7.478;2022-12-18T14:40:56;10.50;;;7.87;;
15096;SDS011;7649;52.084;7.478;2022-12-18T14:43:25;10.07;;;7.50;;
15096;SDS011;7649;52.084;7.478;2022-12-18T14:45:54;11.47;;;7.80;;
15096;SDS011;7649;52.084;7.478;2022-12-18T14:48:30;8.17;;;6.30;;
15096;SDS011;7649;52.084;7.478;2022-12-18T14:51:01;8.37;;;6.70;;
15096;SDS011;7649;52.084;7.478;2022-12-18T14:53:34;9.37;;;6.93;;
15096;SDS011;7649;52.084;7.478;2022-12-18T14:56:11;9.73;;;7.23;;
15096;SDS011;7649;52.084;7.478;2022-12-18T14:58:44;10.40;;;6.90;;
15096;SDS011;7649;52.084;7.478;2022-12-18T15:01:17;10.57;;;7.50;;
15096;SDS011;7649;52.084;7.478;2022-12-18T15:03:47;10.27;;;7.23;;
15096;SDS011;7649;52.084;7.478;2022-12-18T15:06:16;8.43;;;7.00;;
15096;SDS011;7649;52.084;7.478;2022-12-18T15:08:44;9.50;;;6.23;;